Akraberg, Faroe Islands

1:32 PM WET on February 08, 2016 (GMT +0000)
Vagar | | Change Station
CLOSE
Current Station
Airport
Location: Vagar,
Elevation: 279 ft
Nearby Weather Stations

Elev 279 ft 62.07 °N, 7.28 °W | Updated 12 minutes ago

Light Drizzle
Light Drizzle
41 °F
Feels Like 35 °F
N
10
Wind Variable Wind from North

Today
High -- | Low -- °F
--% Chance of Precip.
Yesterday
High -- | Low -- °F
Precip. -- in
Pressure 28.71 in
Visibility 6.2 miles
Clouds Mostly Cloudy 2600 ft
Mostly Cloudy 10000 ft
Windchill 35 °F
Dew Point 36 °F
Humidity 81%
Rainfall 0.00 in
Snow Depth Not available.
8:31 AM 4:51 PM
Waning Crescent, 0% visible
METAR EKVG 081320Z AUTO 35009KT 9999NDV -DZ BKN026/// BKN100/// 05/02 Q0972 RMK SCT022/// BKN110/// WIND 850FT 02011G23KT 330V090
Pressure 28.71 in
Visibility 6.2 miles
Clouds Mostly Cloudy 2600 ft
Mostly Cloudy 10000 ft
Windchill 35 °F
Dew Point 36 °F
Humidity 81%
Rainfall 0.00 in
Snow Depth Not available.
8:31 AM 4:51 PM
Waning Crescent, 0% visible
METAR EKVG 081320Z AUTO 35009KT 9999NDV -DZ BKN026/// BKN100/// 05/02 Q0972 RMK SCT022/// BKN110/// WIND 850FT 02011G23KT 330V090

10-Day Weather Forecast

No radar image for this location.
×

Almanac

Astronomy

Feb. 08, 2016 Rise Set
Actual Time
Civil Twilight
Nautical Twilight
Astronomical Twilight
Moon
Length of Visible Light
Length of Day
Tomorrow will be .
, % of the Moon is Illuminated

Today's Extremes

Country Highs Country Lows

Community

WunderPhotos

Upload Photos

1,891,434 photos uploaded!

WunderBlog® & News

Nearby

Air Quality

  Air Quality AQ Index Pollutant
Not available.

Snow Depth

Station Depth Elevation

Earthquake Activity

City Distance Mag. Time & Date
Minimum magnitude displayed is 2.5.

Coastal Water Temperatures

Place Temperature

Stations

Nearby Weather Stations

Station Location Temp. Windchill Dew Point Humidity Wind Precip. Elev Updated Type